createdAt,value
2023-05-10T00:00:35.939Z,21.6262
2023-05-10T00:01:36.985Z,21.5392
2023-05-10T00:02:38.216Z,21.5578
2023-05-10T00:03:39.263Z,21.5557
2023-05-10T00:04:40.284Z,21.6330
2023-05-10T00:05:41.391Z,21.7523
2023-05-10T00:06:42.442Z,21.8452
2023-05-10T00:07:43.528Z,21.8754
2023-05-10T00:08:44.617Z,21.8007
2023-05-10T00:09:45.705Z,21.7504
2023-05-10T00:10:46.818Z,21.6439
2023-05-10T00:11:47.888Z,21.6450
2023-05-10T00:12:49.052Z,21.6245
2023-05-10T00:13:50.070Z,21.6646
2023-05-10T00:14:51.164Z,21.7242
2023-05-10T00:15:52.245Z,21.8204
2023-05-10T00:16:53.522Z,21.8422
2023-05-10T00:17:54.485Z,21.8498
2023-05-10T00:18:55.548Z,21.8644
2023-05-10T00:19:56.610Z,21.8289
2023-05-10T00:20:57.735Z,21.7676
2023-05-10T00:21:58.798Z,21.7680
2023-05-10T00:22:59.879Z,21.7727
2023-05-10T00:24:00.987Z,21.8392
2023-05-10T00:25:02.076Z,21.8148
2023-05-10T00:26:03.182Z,21.7593
2023-05-10T00:27:04.231Z,21.7991
2023-05-10T00:28:05.327Z,21.7779
2023-05-10T00:29:06.451Z,21.6777
2023-05-10T00:30:07.516Z,21.7453
2023-05-10T00:31:08.610Z,21.7070
2023-05-10T00:32:09.804Z,21.7580
2023-05-10T00:33:10.869Z,21.7709
2023-05-10T00:34:11.899Z,21.7416
2023-05-10T00:35:12.989Z,21.7225
2023-05-10T00:36:14.097Z,21.6873
2023-05-10T00:37:15.169Z,21.6183
2023-05-10T00:38:16.245Z,21.6083
2023-05-10T00:39:17.353Z,21.7232
2023-05-10T00:40:18.712Z,21.8137
2023-05-10T00:41:19.545Z,21.7646
2023-05-10T00:42:20.611Z,21.6462
2023-05-10T00:43:21.704Z,21.5931
2023-05-10T00:44:22.792Z,21.6208
2023-05-10T00:45:23.904Z,21.6841
2023-05-10T00:46:25.019Z,21.6409
2023-05-10T00:47:26.160Z,21.5868
2023-05-10T00:48:27.166Z,21.6450
2023-05-10T00:49:28.250Z,21.6256
2023-05-10T00:50:29.333Z,21.5611
2023-05-10T00:51:30.473Z,21.5313
2023-05-10T00:52:31.537Z,21.4927
2023-05-10T00:53:32.613Z,21.5034
2023-05-10T00:54:33.705Z,21.6363
2023-05-10T00:55:34.793Z,21.7156
2023-05-10T00:56:35.898Z,21.6733
2023-05-10T00:57:36.962Z,21.6343
2023-05-10T00:58:38.056Z,21.5333
2023-05-10T00:59:39.146Z,21.4678
2023-05-10T01:00:40.234Z,21.5074
2023-05-10T01:01:41.391Z,21.5787
2023-05-10T01:02:42.519Z,21.5913
2023-05-10T01:03:43.488Z,21.5946
2023-05-10T01:04:44.642Z,21.6000
2023-05-10T01:05:45.685Z,21.5458
2023-05-10T01:06:46.775Z,21.5733
2023-05-10T01:07:47.847Z,21.5934
2023-05-10T01:08:48.933Z,21.6261
2023-05-10T01:09:50.032Z,21.6380
2023-05-10T01:10:51.109Z,21.6677
2023-05-10T01:11:52.281Z,21.6228
2023-05-10T01:12:53.366Z,21.6335
2023-05-10T01:13:54.376Z,21.6267
2023-05-10T01:14:55.475Z,21.6546
2023-05-10T01:15:56.593Z,21.6284
2023-05-10T01:16:57.700Z,21.5640
2023-05-10T01:17:58.780Z,21.5521
2023-05-10T01:18:59.856Z,21.6400
2023-05-10T01:20:00.945Z,21.7244
2023-05-10T01:21:02.023Z,21.7255
2023-05-10T01:22:03.123Z,21.7368
2023-05-10T01:23:04.196Z,21.7915
2023-05-10T01:24:05.297Z,21.8403
2023-05-10T01:25:06.355Z,21.8309
2023-05-10T01:26:07.444Z,21.8243
2023-05-10T01:27:08.631Z,21.7445
2023-05-10T01:28:09.629Z,21.7479
2023-05-10T01:29:10.727Z,21.7895
2023-05-10T01:30:22.003Z,21.8598
2023-05-10T01:31:13.933Z,21.9281
2023-05-10T01:32:14.018Z,21.9593
2023-05-10T01:33:15.082Z,21.9199
2023-05-10T01:34:16.160Z,21.9499
2023-05-10T01:35:17.251Z,21.9473
2023-05-10T01:36:18.327Z,21.9134
2023-05-10T01:37:19.440Z,21.8081
2023-05-10T01:38:20.525Z,21.8191
2023-05-10T01:39:21.600Z,21.7468
2023-05-10T01:40:22.672Z,21.7734
2023-05-10T01:41:23.762Z,21.6996
2023-05-10T01:42:24.877Z,21.7097
2023-05-10T01:43:25.935Z,21.6577
2023-05-10T01:44:27.038Z,21.6232
2023-05-10T01:45:28.157Z,21.6784
2023-05-10T01:46:29.233Z,21.7320
2023-05-10T01:47:30.354Z,21.6490
2023-05-10T01:48:31.452Z,21.6652
2023-05-10T01:49:32.483Z,21.6425
2023-05-10T01:50:33.574Z,21.6705
2023-05-10T01:51:34.664Z,21.7561
2023-05-10T01:52:35.754Z,21.8045
2023-05-10T01:53:36.836Z,21.7485
2023-05-10T01:54:37.929Z,21.7210
2023-05-10T01:55:39.038Z,21.7812
2023-05-10T01:56:40.121Z,21.7279
2023-05-10T01:57:41.210Z,21.6506
2023-05-10T01:58:42.309Z,21.6231
2023-05-10T01:59:43.402Z,21.6262
2023-05-10T02:00:44.534Z,21.5742
2023-05-10T02:01:45.573Z,21.6095
2023-05-10T02:02:46.709Z,21.6382
2023-05-10T02:03:47.814Z,21.6611
2023-05-10T02:04:48.853Z,21.7721
2023-05-10T02:05:57.479Z,21.8173
2023-05-10T02:06:51.044Z,21.7535
2023-05-10T02:07:52.169Z,21.7208
2023-05-10T02:08:53.212Z,21.7254
2023-05-10T02:09:54.322Z,21.6046
2023-05-10T02:10:55.407Z,21.6223
2023-05-10T02:11:56.494Z,21.7074
2023-05-10T02:12:57.615Z,21.7091
2023-05-10T02:13:58.703Z,21.6209
2023-05-10T02:14:59.795Z,21.6231
2023-05-10T02:16:00.904Z,21.5089
2023-05-10T02:17:02.082Z,21.5307
2023-05-10T02:18:03.151Z,21.5858
2023-05-10T02:19:04.162Z,21.5804
2023-05-10T02:20:05.232Z,21.5756
2023-05-10T02:21:06.387Z,21.5499
2023-05-10T02:22:07.448Z,21.5872
2023-05-10T02:23:08.538Z,21.6965
2023-05-10T02:24:09.619Z,21.7350
2023-05-10T02:25:10.706Z,21.6711
2023-05-10T02:26:11.802Z,21.6982
2023-05-10T02:27:12.896Z,21.6488
2023-05-10T02:28:14.134Z,21.7076
2023-05-10T02:29:15.160Z,21.6997
2023-05-10T02:30:16.367Z,21.5940
2023-05-10T02:31:17.320Z,21.5373
2023-05-10T02:32:18.518Z,21.5152
2023-05-10T02:33:19.532Z,21.4785
2023-05-10T02:34:20.620Z,21.4324
2023-05-10T02:35:21.699Z,21.5007
2023-05-10T02:36:22.784Z,21.5655
2023-05-10T02:37:23.885Z,21.4796
2023-05-10T02:38:24.968Z,21.5044
2023-05-10T02:39:26.043Z,21.4876
2023-05-10T02:40:28.792Z,21.4300
2023-05-10T02:41:28.242Z,21.4225
2023-05-10T02:42:29.328Z,21.5059
2023-05-10T02:43:30.422Z,21.5613
2023-05-10T02:44:31.543Z,21.6001
2023-05-10T02:45:32.595Z,21.6001
2023-05-10T02:46:33.815Z,21.6396
2023-05-10T02:47:34.811Z,21.6166
2023-05-10T02:48:35.891Z,21.6865
2023-05-10T02:49:36.969Z,21.8143
2023-05-10T02:50:38.062Z,21.7483
2023-05-10T02:51:39.156Z,21.5982
2023-05-10T02:52:40.250Z,21.6356
2023-05-10T02:53:41.405Z,21.6448
2023-05-10T02:54:42.411Z,21.6619
2023-05-10T02:55:43.518Z,21.8025
2023-05-10T02:56:44.605Z,21.7851
2023-05-10T02:57:45.711Z,21.7313
2023-05-10T02:58:46.815Z,21.6426
2023-05-10T02:59:47.898Z,21.6267
2023-05-10T03:00:48.952Z,21.6722
2023-05-10T03:01:50.180Z,21.7306
2023-05-10T03:02:51.175Z,21.7674
2023-05-10T03:03:52.289Z,21.7683
2023-05-10T03:04:53.369Z,21.7607
2023-05-10T03:05:54.441Z,21.7273
2023-05-10T03:06:55.505Z,21.6534
2023-05-10T03:07:56.629Z,21.6591
2023-05-10T03:08:57.709Z,21.7601
2023-05-10T03:09:58.788Z,21.8432
2023-05-10T03:10:59.864Z,21.7856
2023-05-10T03:12:00.961Z,21.7109
2023-05-10T03:13:02.083Z,21.6829
2023-05-10T03:14:03.158Z,21.6516
2023-05-10T03:15:04.219Z,21.7010
2023-05-10T03:16:05.336Z,21.7542
2023-05-10T03:17:06.407Z,21.7517
2023-05-10T03:18:07.616Z,21.8337
2023-05-10T03:19:08.579Z,21.7781
2023-05-10T03:20:09.660Z,21.8147
2023-05-10T03:21:10.739Z,21.7466
2023-05-10T03:22:11.853Z,21.7053
2023-05-10T03:23:12.967Z,21.7644
2023-05-10T03:24:14.038Z,21.7747
2023-05-10T03:25:15.119Z,21.8105
2023-05-10T03:26:16.214Z,21.7997
2023-05-10T03:27:17.300Z,21.8985
2023-05-10T03:28:18.395Z,22.0040
2023-05-10T03:29:19.579Z,21.9832
2023-05-10T03:30:20.576Z,21.8180
2023-05-10T03:31:21.685Z,21.7993
2023-05-10T03:32:22.804Z,21.8837
2023-05-10T03:33:23.861Z,21.8490
2023-05-10T03:34:24.998Z,21.8400
2023-05-10T03:35:26.075Z,21.7499
2023-05-10T03:36:27.154Z,21.7465
2023-05-10T03:37:28.261Z,21.7538
2023-05-10T03:38:30.534Z,21.7785
2023-05-10T03:39:30.405Z,21.7745
2023-05-10T03:40:31.474Z,21.7562
2023-05-10T03:41:32.572Z,21.7039
2023-05-10T03:42:33.685Z,21.7402
2023-05-10T03:43:34.781Z,21.8496
2023-05-10T03:44:35.867Z,21.7785
2023-05-10T03:45:36.943Z,21.7461
2023-05-10T03:46:38.085Z,21.7232
2023-05-10T03:47:39.163Z,21.7309
2023-05-10T03:48:40.240Z,21.7286
2023-05-10T03:49:41.368Z,21.7440
2023-05-10T03:50:42.422Z,21.7904
2023-05-10T03:51:43.495Z,21.8690
2023-05-10T03:52:44.620Z,21.8510
2023-05-10T03:53:45.694Z,21.8523
2023-05-10T03:54:46.807Z,21.8763
2023-05-10T03:55:47.861Z,21.8961
2023-05-10T03:56:49.023Z,21.8617
2023-05-10T03:57:50.053Z,21.7480
2023-05-10T03:58:51.123Z,21.7515
2023-05-10T03:59:52.229Z,21.7596
2023-05-10T04:00:53.335Z,21.8169
2023-05-10T04:01:54.490Z,21.8512
2023-05-10T04:02:55.542Z,21.9498
2023-05-10T04:03:56.665Z,21.9851
2023-05-10T04:04:57.689Z,21.9713
2023-05-10T04:05:58.856Z,21.9657
2023-05-10T04:06:59.868Z,21.9603
2023-05-10T04:08:00.968Z,21.9009
2023-05-10T04:09:02.082Z,21.9376
2023-05-10T04:10:03.174Z,21.9836
2023-05-10T04:11:04.230Z,21.9877
2023-05-10T04:12:05.365Z,21.9267
2023-05-10T04:13:06.511Z,21.9455
2023-05-10T04:14:07.503Z,21.9204
2023-05-10T04:15:08.653Z,21.8038
2023-05-10T04:16:09.685Z,21.7259
2023-05-10T04:17:10.817Z,21.7768
2023-05-10T04:18:11.900Z,21.9016
2023-05-10T04:19:12.964Z,21.9837
2023-05-10T04:20:14.193Z,21.9928
2023-05-10T04:21:15.168Z,21.9134
2023-05-10T04:22:16.234Z,21.9020
2023-05-10T04:23:17.300Z,21.8393
2023-05-10T04:24:18.402Z,21.8122
2023-05-10T04:25:19.488Z,21.8985
2023-05-10T04:26:20.577Z,21.9259
2023-05-10T04:27:21.701Z,21.8669
2023-05-10T04:28:22.760Z,21.8598
2023-05-10T04:29:23.863Z,21.9173
2023-05-10T04:30:24.957Z,21.9132
2023-05-10T04:31:26.074Z,21.9161
2023-05-10T04:32:27.191Z,21.8403
2023-05-10T04:33:28.288Z,21.8648
2023-05-10T04:34:29.300Z,21.9300
2023-05-10T04:35:30.385Z,21.9823
2023-05-10T04:36:31.470Z,22.0493
2023-05-10T04:37:32.575Z,21.9779
2023-05-10T04:38:33.728Z,21.8562
2023-05-10T04:39:34.759Z,21.7933
2023-05-10T04:40:35.933Z,21.7608
2023-05-10T04:41:36.919Z,21.8607
2023-05-10T04:42:38.017Z,21.9805
2023-05-10T04:43:39.245Z,22.0502
2023-05-10T04:44:40.207Z,22.0961
2023-05-10T04:45:41.325Z,22.1140
2023-05-10T04:46:42.510Z,22.1199
2023-05-10T04:47:43.521Z,22.0709
2023-05-10T04:48:44.563Z,21.9596
2023-05-10T04:49:45.645Z,21.9342
2023-05-10T04:50:46.771Z,21.8872
2023-05-10T04:51:47.868Z,21.8733
2023-05-10T04:52:48.936Z,21.9019
2023-05-10T04:54:01.446Z,21.8833
2023-05-10T04:54:52.116Z,21.8675
2023-05-10T04:55:52.215Z,21.8803
2023-05-10T04:56:53.294Z,21.9472
2023-05-10T04:57:54.388Z,21.9971
2023-05-10T04:58:55.498Z,22.0232
2023-05-10T04:59:56.544Z,21.9256
2023-05-10T05:00:57.674Z,21.9557
2023-05-10T05:01:58.801Z,21.9965
2023-05-10T05:02:59.930Z,22.0239
2023-05-10T05:04:01.043Z,21.9373
2023-05-10T05:05:02.015Z,21.9420
2023-05-10T05:06:03.168Z,21.9420
2023-05-10T05:07:04.206Z,21.9584
2023-05-10T05:08:05.295Z,21.8760
2023-05-10T05:09:06.396Z,21.8737
2023-05-10T05:10:07.525Z,21.8997
2023-05-10T05:11:08.574Z,21.9484
2023-05-10T05:12:09.706Z,21.9344
2023-05-10T05:13:10.782Z,21.9813
2023-05-10T05:14:11.833Z,21.9765
2023-05-10T05:15:12.967Z,21.8898
2023-05-10T05:16:14.223Z,21.8577
2023-05-10T05:17:15.168Z,21.9055
2023-05-10T05:18:16.233Z,21.8176
2023-05-10T05:19:17.371Z,21.7026
2023-05-10T05:20:18.674Z,21.6796
2023-05-10T05:21:19.516Z,21.7478
2023-05-10T05:22:20.619Z,21.8388
2023-05-10T05:23:21.741Z,21.8749
2023-05-10T05:24:22.786Z,21.8881
2023-05-10T05:25:23.869Z,21.8958
2023-05-10T05:26:24.971Z,21.9160
2023-05-10T05:27:26.053Z,21.9594
2023-05-10T05:28:27.180Z,21.9216
2023-05-10T05:29:28.246Z,21.8854
2023-05-10T05:30:29.342Z,21.8644
2023-05-10T05:31:30.496Z,21.8903
2023-05-10T05:32:31.552Z,21.8318
2023-05-10T05:33:32.617Z,21.8326
2023-05-10T05:34:33.734Z,21.8365
2023-05-10T05:35:34.813Z,21.8674
2023-05-10T05:36:37.619Z,21.9347
2023-05-10T05:37:36.981Z,21.8776
2023-05-10T05:38:38.093Z,21.8163
2023-05-10T05:39:39.229Z,21.7834
2023-05-10T05:40:40.291Z,21.8383
2023-05-10T05:41:41.351Z,21.8534
2023-05-10T05:42:42.458Z,21.8650
2023-05-10T05:43:43.544Z,21.7995
2023-05-10T05:44:44.623Z,21.7897
2023-05-10T05:45:45.777Z,21.7189
2023-05-10T05:46:46.866Z,21.7491
2023-05-10T05:47:47.976Z,21.8482
2023-05-10T05:48:48.987Z,21.9278
2023-05-10T05:49:50.109Z,21.7968
2023-05-10T05:50:51.182Z,21.7897
2023-05-10T05:51:52.270Z,21.8613
2023-05-10T05:52:53.366Z,21.8674
2023-05-10T05:53:54.497Z,21.8228
2023-05-10T05:54:55.549Z,21.9405
2023-05-10T05:55:56.621Z,22.0397
2023-05-10T05:56:59.830Z,22.0782
2023-05-10T05:57:58.829Z,22.0928
2023-05-10T05:58:59.912Z,22.0554
2023-05-10T06:00:01.019Z,22.0782
2023-05-10T06:01:02.099Z,22.1248
2023-05-10T06:02:03.213Z,22.1508
2023-05-10T06:03:04.378Z,22.1441
2023-05-10T06:04:05.444Z,22.0872
2023-05-10T06:05:06.507Z,22.1424
2023-05-10T06:06:07.571Z,22.1390
2023-05-10T06:07:08.704Z,22.0650
2023-05-10T06:08:09.772Z,22.0187
2023-05-10T06:09:10.834Z,22.0239
2023-05-10T06:10:11.929Z,22.0076
2023-05-10T06:11:13.036Z,22.0202
2023-05-10T06:12:14.139Z,21.9751
2023-05-10T06:13:15.245Z,21.8812
2023-05-10T06:14:16.310Z,21.8169
2023-05-10T06:15:17.593Z,21.9082
2023-05-10T06:16:18.503Z,21.9689
2023-05-10T06:17:19.603Z,22.0111
2023-05-10T06:18:20.717Z,22.0988
2023-05-10T06:19:21.785Z,22.1540
2023-05-10T06:20:22.894Z,22.1884
2023-05-10T06:21:24.001Z,22.2280
2023-05-10T06:22:25.063Z,22.2303
2023-05-10T06:23:26.156Z,22.2496
2023-05-10T06:24:27.261Z,22.2153
2023-05-10T06:25:28.360Z,22.1847
2023-05-10T06:26:29.487Z,22.0503
2023-05-10T06:27:30.535Z,21.9377
2023-05-10T06:28:31.710Z,21.9641
2023-05-10T06:29:32.808Z,22.0826
2023-05-10T06:30:33.933Z,22.1288
2023-05-10T06:31:35.011Z,22.1179
2023-05-10T06:32:36.174Z,22.1200
2023-05-10T06:33:37.194Z,21.9890
2023-05-10T06:34:38.254Z,21.9524
2023-05-10T06:35:39.350Z,22.0090
2023-05-10T06:36:40.460Z,21.9984
2023-05-10T06:37:41.603Z,21.9226
2023-05-10T06:38:42.682Z,21.9550
2023-05-10T06:39:43.746Z,22.0174
2023-05-10T06:40:44.834Z,21.9558
2023-05-10T06:41:45.943Z,21.8837
2023-05-10T06:42:47.001Z,21.8460
2023-05-10T06:43:48.133Z,21.9148
2023-05-10T06:44:49.236Z,21.9928
2023-05-10T06:45:50.279Z,22.0439
2023-05-10T06:46:51.446Z,22.0212
2023-05-10T06:47:52.565Z,22.0203
2023-05-10T06:48:53.601Z,22.0315
2023-05-10T06:49:54.678Z,22.0805
2023-05-10T06:50:55.757Z,22.1212
2023-05-10T06:51:56.843Z,22.1080
2023-05-10T06:52:57.960Z,22.1145
2023-05-10T06:53:59.025Z,22.0415
2023-05-10T06:55:00.179Z,21.9601
2023-05-10T06:56:01.212Z,21.9349
2023-05-10T06:57:03.935Z,21.9139
2023-05-10T06:58:03.436Z,21.9398
2023-05-10T06:59:04.575Z,22.0031
2023-05-10T07:00:05.660Z,22.0571
2023-05-10T07:01:06.731Z,22.0807
2023-05-10T07:02:07.848Z,22.1135
2023-05-10T07:03:09.017Z,22.0053
2023-05-10T07:04:09.962Z,21.9653
2023-05-10T07:05:11.037Z,22.0271
2023-05-10T07:06:21.758Z,22.0901
2023-05-10T07:07:14.261Z,22.1012
2023-05-10T07:08:14.371Z,22.1206
2023-05-10T07:09:15.422Z,22.1865
2023-05-10T07:10:16.512Z,22.1952
2023-05-10T07:11:17.628Z,22.1575
2023-05-10T07:12:18.733Z,22.1307
2023-05-10T07:13:19.915Z,22.1373
2023-05-10T07:14:20.933Z,22.1289
2023-05-10T07:15:22.002Z,22.0574
2023-05-10T07:16:23.306Z,22.0309
2023-05-10T07:17:24.216Z,22.0885
2023-05-10T07:18:25.302Z,22.1428
2023-05-10T07:19:26.369Z,22.1628
2023-05-10T07:20:27.490Z,22.1643
2023-05-10T07:21:28.582Z,22.2066
2023-05-10T07:22:29.625Z,22.2206
2023-05-10T07:23:30.762Z,22.2001
2023-05-10T07:24:31.835Z,22.1834
2023-05-10T07:25:32.957Z,22.1161
2023-05-10T07:26:34.058Z,22.0266
2023-05-10T07:27:35.149Z,22.0630
2023-05-10T07:28:36.218Z,22.0827
2023-05-10T07:29:37.301Z,22.0382
2023-05-10T07:30:38.426Z,22.0380
2023-05-10T07:31:39.531Z,22.0295
2023-05-10T07:32:40.755Z,22.0355
2023-05-10T07:33:41.725Z,22.0628
2023-05-10T07:34:42.792Z,22.0938
2023-05-10T07:35:43.919Z,22.1241
2023-05-10T07:36:44.975Z,22.1298
2023-05-10T07:37:46.057Z,22.0496
2023-05-10T07:38:47.171Z,21.9644
2023-05-10T07:39:48.314Z,21.9644
2023-05-10T07:40:49.353Z,22.0357
2023-05-10T07:41:50.469Z,22.0770
2023-05-10T07:42:51.546Z,22.0967
2023-05-10T07:43:52.664Z,22.0035
2023-05-10T07:44:53.739Z,21.9117
2023-05-10T07:45:56.427Z,21.8044
2023-05-10T07:46:55.976Z,21.7994
2023-05-10T07:47:57.100Z,21.9063
2023-05-10T07:48:58.138Z,21.9706
2023-05-10T07:49:59.229Z,22.0038
2023-05-10T07:51:00.310Z,22.0681
2023-05-10T07:52:01.406Z,21.9899
2023-05-10T07:53:02.516Z,21.8933
2023-05-10T07:54:03.631Z,21.8416
2023-05-10T07:55:04.684Z,21.8746
2023-05-10T07:56:05.777Z,21.9477
2023-05-10T07:57:06.901Z,21.9825
2023-05-10T07:58:07.989Z,21.9355
2023-05-10T07:59:11.304Z,21.9199
2023-05-10T08:00:10.174Z,21.9378
2023-05-10T08:01:11.250Z,21.9595
2023-05-10T08:02:12.405Z,21.9675
2023-05-10T08:03:13.584Z,21.9427
2023-05-10T08:04:14.569Z,22.0147
2023-05-10T08:05:16.008Z,22.0039
2023-05-10T08:06:16.720Z,21.9278
2023-05-10T08:07:17.810Z,21.7396
2023-05-10T08:08:18.922Z,21.6723
2023-05-10T08:09:20.153Z,21.7574
2023-05-10T08:10:21.180Z,21.8673
2023-05-10T08:11:22.178Z,21.9498
2023-05-10T08:12:23.297Z,21.9123
2023-05-10T08:13:24.358Z,21.9185
2023-05-10T08:14:25.463Z,21.9389
2023-05-10T08:15:26.540Z,21.9702
2023-05-10T08:16:27.829Z,22.0385
2023-05-10T08:17:28.738Z,22.0871
2023-05-10T08:18:29.877Z,22.1355
2023-05-10T08:19:30.944Z,22.1527
2023-05-10T08:20:32.008Z,22.1432
2023-05-10T08:21:33.116Z,22.1214
2023-05-10T08:22:34.198Z,22.1075
2023-05-10T08:23:35.293Z,22.0065
2023-05-10T08:24:36.418Z,22.0455
2023-05-10T08:25:37.463Z,22.0999
2023-05-10T08:26:38.560Z,22.0915
2023-05-10T08:27:39.644Z,22.1052
2023-05-10T08:28:40.748Z,22.1022
2023-05-10T08:29:49.397Z,22.1256
2023-05-10T08:30:43.938Z,22.1616
2023-05-10T08:31:44.185Z,22.1375
2023-05-10T08:32:45.191Z,22.0831
2023-05-10T08:33:46.234Z,22.0784
2023-05-10T08:34:47.326Z,22.0738
2023-05-10T08:35:48.416Z,22.0926
2023-05-10T08:36:49.511Z,22.0945
2023-05-10T08:37:50.617Z,22.0940
2023-05-10T08:38:52.187Z,22.0887
2023-05-10T08:39:52.815Z,22.0894
2023-05-10T08:40:53.957Z,22.1218
2023-05-10T08:41:55.017Z,22.1409
2023-05-10T08:42:56.087Z,22.1295
2023-05-10T08:43:57.192Z,21.9944
2023-05-10T08:44:58.297Z,21.9481
2023-05-10T08:45:59.418Z,21.9874
2023-05-10T08:47:00.735Z,22.0419
2023-05-10T08:48:01.591Z,22.0983
2023-05-10T08:49:02.710Z,22.1511
2023-05-10T08:50:03.779Z,22.1737
2023-05-10T08:51:04.873Z,22.1657
2023-05-10T08:52:05.973Z,22.1412
2023-05-10T08:53:07.082Z,22.1018
2023-05-10T08:54:08.223Z,22.0614
2023-05-10T08:55:09.318Z,22.0386
2023-05-10T08:56:10.417Z,22.0291
2023-05-10T08:57:11.504Z,22.0060
2023-05-10T08:58:12.624Z,21.9968
2023-05-10T08:59:13.732Z,21.9900
2023-05-10T09:00:14.827Z,22.0114
2023-05-10T09:01:15.966Z,22.0578
2023-05-10T09:02:18.811Z,22.0267
2023-05-10T09:03:18.170Z,22.0264
2023-05-10T09:04:19.325Z,22.0058
2023-05-10T09:05:20.620Z,21.9774
2023-05-10T09:06:21.490Z,21.9671
2023-05-10T09:07:22.567Z,21.9462
2023-05-10T09:08:23.718Z,21.9824
2023-05-10T09:09:24.776Z,22.0196
2023-05-10T09:10:26.013Z,22.0509
2023-05-10T09:11:26.975Z,22.0804
2023-05-10T09:12:28.068Z,22.0771
2023-05-10T09:13:29.210Z,22.0509
2023-05-10T09:14:30.334Z,22.0730
2023-05-10T09:15:31.462Z,22.0989
2023-05-10T09:16:32.517Z,22.0702
2023-05-10T09:17:33.680Z,22.0883
2023-05-10T09:18:34.833Z,22.1069
2023-05-10T09:19:35.834Z,22.1141
2023-05-10T09:20:36.933Z,22.0416
2023-05-10T09:21:38.051Z,21.9813
2023-05-10T09:22:39.161Z,21.9795
2023-05-10T09:23:40.235Z,21.9898
2023-05-10T09:24:41.341Z,22.0370
2023-05-10T09:25:42.482Z,22.0775
2023-05-10T09:26:43.574Z,22.1018
2023-05-10T09:27:44.681Z,22.0991
2023-05-10T09:28:45.832Z,22.0589
2023-05-10T09:29:46.889Z,21.9355
2023-05-10T09:30:48.022Z,21.9236
2023-05-10T09:31:49.099Z,21.9657
2023-05-10T09:32:50.346Z,22.0817
2023-05-10T09:33:51.300Z,22.1789
2023-05-10T09:34:52.517Z,22.2326
2023-05-10T09:35:53.562Z,22.2606
2023-05-10T09:36:54.637Z,22.2568
2023-05-10T09:37:55.743Z,22.1896
2023-05-10T09:38:56.832Z,22.0519
2023-05-10T09:39:57.957Z,22.1228
2023-05-10T09:40:59.067Z,22.1726
2023-05-10T09:42:00.165Z,22.1871
2023-05-10T09:43:01.275Z,22.1953
2023-05-10T09:44:02.381Z,22.1455
2023-05-10T09:45:03.487Z,22.2084
2023-05-10T09:46:04.605Z,22.1954
2023-05-10T09:47:05.727Z,22.1449
2023-05-10T09:48:06.915Z,22.0906
2023-05-10T09:49:07.910Z,22.0759
2023-05-10T09:50:09.037Z,22.0795
2023-05-10T09:51:10.140Z,22.0813
2023-05-10T09:52:11.226Z,22.1025
2023-05-10T09:53:12.403Z,22.1168
2023-05-10T09:54:13.463Z,22.1351
2023-05-10T09:55:14.718Z,22.1785
2023-05-10T09:56:15.670Z,22.1947
2023-05-10T09:57:16.790Z,22.2027
2023-05-10T09:58:17.907Z,22.1745
2023-05-10T09:59:19.012Z,22.1641
2023-05-10T10:00:20.195Z,22.0987
2023-05-10T10:01:21.252Z,22.0915
2023-05-10T10:02:22.387Z,22.1238
2023-05-10T10:03:23.434Z,22.1235
2023-05-10T10:04:24.622Z,22.1259
2023-05-10T10:05:25.676Z,22.0735
2023-05-10T10:06:29.986Z,22.0801
2023-05-10T10:07:27.876Z,22.0910
2023-05-10T10:08:28.969Z,22.1008
2023-05-10T10:09:30.067Z,21.9907
2023-05-10T10:10:31.172Z,21.9433
2023-05-10T10:11:32.289Z,22.0223
2023-05-10T10:12:33.485Z,22.0951
2023-05-10T10:13:34.503Z,22.1467
2023-05-10T10:14:35.596Z,22.1593
2023-05-10T10:15:36.831Z,22.1470
2023-05-10T10:16:43.653Z,22.1239
2023-05-10T10:17:39.961Z,22.1455
2023-05-10T10:18:40.046Z,22.1670
2023-05-10T10:19:41.148Z,22.1884
2023-05-10T10:20:42.217Z,22.1860
2023-05-10T10:21:43.370Z,22.0707
2023-05-10T10:22:44.428Z,22.0546
2023-05-10T10:23:45.532Z,22.0489
2023-05-10T10:24:46.627Z,22.0448
2023-05-10T10:25:47.719Z,21.9672
2023-05-10T10:26:48.848Z,22.0200
2023-05-10T10:27:49.931Z,21.9868
2023-05-10T10:28:51.084Z,21.8351
2023-05-10T10:29:52.205Z,21.7657
2023-05-10T10:30:53.311Z,21.8445
2023-05-10T10:31:54.549Z,21.8751
2023-05-10T10:32:55.507Z,21.9239
2023-05-10T10:33:56.584Z,21.8391
2023-05-10T10:34:57.655Z,21.7665
2023-05-10T10:35:58.761Z,21.8338
2023-05-10T10:36:59.866Z,21.9147
2023-05-10T10:38:00.989Z,21.9400
2023-05-10T10:39:02.048Z,21.8935
2023-05-10T10:40:03.128Z,21.8861
2023-05-10T10:41:04.244Z,21.8338
2023-05-10T10:42:05.343Z,21.9093
2023-05-10T10:43:06.413Z,22.0049
2023-05-10T10:44:07.520Z,22.0836
2023-05-10T10:45:08.620Z,22.1271
2023-05-10T10:46:09.720Z,22.0175
2023-05-10T10:47:11.044Z,21.9616
2023-05-10T10:48:11.909Z,22.0259
2023-05-10T10:49:13.019Z,21.9819
2023-05-10T10:50:14.925Z,22.0297
2023-05-10T10:51:15.183Z,22.1396
2023-05-10T10:52:16.323Z,22.1808
2023-05-10T10:53:17.414Z,22.1954
2023-05-10T10:54:18.519Z,22.0436
2023-05-10T10:55:19.657Z,21.9876
2023-05-10T10:56:20.675Z,22.0613
2023-05-10T10:57:21.769Z,22.1002
2023-05-10T10:58:22.856Z,22.1541
2023-05-10T10:59:23.989Z,22.2177
2023-05-10T11:00:25.067Z,22.2264
2023-05-10T11:01:26.165Z,22.1430
2023-05-10T11:02:27.715Z,22.1028
2023-05-10T11:03:28.361Z,21.9442
2023-05-10T11:04:29.511Z,21.8908
2023-05-10T11:05:30.547Z,21.9190
2023-05-10T11:06:31.656Z,21.8483
2023-05-10T11:07:32.768Z,21.8532
2023-05-10T11:08:35.714Z,21.9505
2023-05-10T11:09:34.920Z,22.0398
2023-05-10T11:10:36.028Z,22.0886
2023-05-10T11:11:37.117Z,22.0770
2023-05-10T11:12:38.220Z,22.0537
2023-05-10T11:13:39.378Z,21.9693
2023-05-10T11:14:40.403Z,21.8598
2023-05-10T11:15:41.581Z,21.9093
2023-05-10T11:16:42.597Z,21.9181
2023-05-10T11:17:43.739Z,21.9942
2023-05-10T11:18:44.933Z,21.9590
2023-05-10T11:19:45.887Z,21.8335
2023-05-10T11:20:46.998Z,21.7944
2023-05-10T11:21:48.087Z,21.8553
2023-05-10T11:22:49.185Z,21.8802
2023-05-10T11:23:50.275Z,21.8007
2023-05-10T11:24:51.371Z,21.8265
2023-05-10T11:25:52.467Z,21.8204
2023-05-10T11:26:53.567Z,21.9133
2023-05-10T11:27:54.703Z,21.8934
2023-05-10T11:28:55.750Z,21.9343
2023-05-10T11:29:56.861Z,21.9089
2023-05-10T11:30:57.926Z,21.7604
2023-05-10T11:31:59.023Z,21.6813
2023-05-10T11:33:00.192Z,21.6535
2023-05-10T11:34:01.223Z,21.6139
2023-05-10T11:35:02.308Z,21.7097
2023-05-10T11:36:03.381Z,21.7790
2023-05-10T11:37:04.493Z,21.7928
2023-05-10T11:38:05.591Z,21.7229
2023-05-10T11:39:06.671Z,21.7031
2023-05-10T11:40:07.775Z,21.6446
2023-05-10T11:41:08.855Z,21.6997
2023-05-10T11:42:10.049Z,21.7522
2023-05-10T11:43:11.060Z,21.8429
2023-05-10T11:44:12.160Z,21.8879
2023-05-10T11:45:13.242Z,21.7939
2023-05-10T11:46:14.344Z,21.7123
2023-05-10T11:47:15.423Z,21.7377
2023-05-10T11:48:16.613Z,21.7878
2023-05-10T11:49:17.618Z,21.9085
2023-05-10T11:50:18.993Z,22.0106
2023-05-10T11:51:19.800Z,22.0575
2023-05-10T11:52:20.922Z,22.0475
2023-05-10T11:53:23.270Z,22.0396
2023-05-10T11:54:23.124Z,22.0346
2023-05-10T11:55:24.247Z,21.9765
2023-05-10T11:56:25.333Z,21.9096
2023-05-10T11:57:26.382Z,21.9653
2023-05-10T11:58:27.484Z,21.9462
2023-05-10T11:59:28.607Z,21.9580
2023-05-10T12:00:29.693Z,22.0368
2023-05-10T12:01:30.748Z,22.0836
2023-05-10T12:02:31.904Z,22.1439
2023-05-10T12:03:33.094Z,22.1464
2023-05-10T12:04:34.067Z,22.1014
2023-05-10T12:05:35.186Z,22.0923
2023-05-10T12:06:36.234Z,22.0934
2023-05-10T12:07:37.322Z,22.1034
2023-05-10T12:08:38.411Z,22.1040
2023-05-10T12:09:44.037Z,22.0845
2023-05-10T12:10:41.642Z,22.0586
2023-05-10T12:11:44.026Z,21.9820
2023-05-10T12:12:42.804Z,22.0268
2023-05-10T12:13:44.049Z,22.0902
2023-05-10T12:14:44.977Z,22.1651
2023-05-10T12:15:46.060Z,22.2183
2023-05-10T12:16:47.343Z,22.2346
2023-05-10T12:17:48.336Z,22.2437
2023-05-10T12:18:49.378Z,22.2360